Pulaski, Iowa
Current Conditions -  °F | °C
As of 8:55 AM on Tuesday 21 Oct 2014 (Local Time) from KFFL Reporting Station
Clear Clear  
Wind Chill: 44°   Ceiling: Unl
Heat Index: 46°   Visibility: NA
Dew Point: 43°   Wind: 5mph
Humidity: 87%   Direction: 70°ENE
Pressure: 30.17"   Gusts: NA
Location:  40.7°N, 92.27°W
Report Text: KFFL 211355Z AUTO 07004KT CLR 08/06 A3017 RMK AO2
Loading
Personal Weather Stations






























Interactive Weather Map
Tropical Storm Tracking
New forecast layout! Learn more

10-Day Weather Forecast

Advertisements
Track Severe Weather on mobile